createdAt,value
2023-01-29T00:02:11.399Z,58.16
2023-01-29T00:05:26.897Z,57.41
2023-01-29T00:08:30.150Z,57.58
2023-01-29T00:11:32.361Z,58.45
2023-01-29T00:14:35.054Z,57.98
2023-01-29T00:17:37.206Z,58.79
2023-01-29T00:20:39.365Z,59.13
2023-01-29T00:23:42.162Z,59.18
2023-01-29T00:26:44.529Z,59.86
2023-01-29T00:30:06.666Z,58.92
2023-01-29T00:33:08.961Z,58.78
2023-01-29T00:36:14.434Z,58.35
2023-01-29T00:39:16.577Z,58.04
2023-01-29T00:42:37.249Z,58.17
2023-01-29T00:45:39.737Z,58.03
2023-01-29T00:48:41.870Z,59.18
2023-01-29T00:52:05.166Z,59.02
2023-01-29T00:55:08.281Z,58.76
2023-01-29T00:58:10.442Z,59.29
2023-01-29T01:01:12.687Z,58.58
2023-01-29T01:04:14.866Z,59.81
2023-01-29T01:07:17.108Z,58.24
2023-01-29T01:10:28.731Z,59.63
2023-01-29T01:13:34.555Z,59.87
2023-01-29T01:16:37.113Z,60.48
2023-01-29T01:19:39.289Z,59.41
2023-01-29T01:22:41.649Z,58.77
2023-01-29T01:25:46.954Z,60.30
2023-01-29T01:29:12.104Z,59.48
2023-01-29T01:32:14.582Z,59.45
2023-01-29T01:35:16.969Z,59.00
2023-01-29T01:41:36.078Z,59.31
2023-01-29T01:45:05.497Z,58.42
2023-01-29T01:48:12.938Z,59.46
2023-01-29T01:51:16.585Z,59.59
2023-01-29T01:54:25.583Z,59.39
2023-01-29T01:57:29.534Z,59.38
2023-01-29T02:00:31.689Z,59.19
2023-01-29T02:04:00.267Z,59.50
2023-01-29T02:07:23.192Z,59.91
2023-01-29T02:10:26.247Z,58.63
2023-01-29T02:13:28.476Z,59.11
2023-01-29T02:16:30.800Z,59.52
2023-01-29T02:19:39.073Z,58.59
2023-01-29T02:23:03.844Z,59.23
2023-01-29T02:26:24.840Z,59.03
2023-01-29T02:29:37.681Z,59.26
2023-01-29T02:32:54.602Z,58.45
2023-01-29T02:36:16.734Z,59.08
2023-01-29T02:39:40.256Z,58.93
2023-01-29T02:42:57.081Z,59.14
2023-01-29T02:46:19.061Z,59.21
2023-01-29T02:49:38.036Z,58.85
2023-01-29T02:53:02.331Z,58.97
2023-01-29T02:56:18.605Z,59.88
2023-01-29T02:59:26.983Z,59.31
2023-01-29T03:02:33.868Z,60.18
2023-01-29T03:06:02.278Z,58.92
2023-01-29T03:09:09.544Z,59.99
2023-01-29T03:12:33.609Z,59.07
2023-01-29T03:15:51.292Z,59.97
2023-01-29T03:19:18.878Z,60.68
2023-01-29T03:22:23.236Z,60.38
2023-01-29T03:25:45.956Z,58.86
2023-01-29T03:29:06.973Z,59.87
2023-01-29T03:32:10.907Z,59.58
2023-01-29T03:35:20.906Z,59.02
2023-01-29T03:38:29.451Z,59.42
2023-01-29T03:41:47.601Z,59.34
2023-01-29T03:45:15.564Z,58.34
2023-01-29T03:48:55.927Z,59.54
2023-01-29T03:52:06.238Z,58.59
2023-01-29T03:55:13.085Z,58.97
2023-01-29T03:58:21.603Z,57.94
2023-01-29T04:01:31.849Z,58.17
2023-01-29T04:04:36.910Z,57.54
2023-01-29T04:07:42.143Z,56.96
2023-01-29T04:10:45.249Z,57.20
2023-01-29T04:13:47.924Z,57.58
2023-01-29T04:16:55.895Z,56.32
2023-01-29T04:20:13.905Z,57.91
2023-01-29T04:23:22.925Z,56.91
2023-01-29T04:26:40.917Z,56.93
2023-01-29T04:30:04.669Z,57.60
2023-01-29T04:33:36.128Z,56.87
2023-01-29T04:36:43.211Z,57.47
2023-01-29T04:40:00.259Z,57.82
2023-01-29T04:43:05.087Z,58.12
2023-01-29T04:46:13.221Z,57.37
2023-01-29T04:49:41.113Z,57.46
2023-01-29T04:52:57.385Z,56.25
2023-01-29T04:56:05.477Z,57.49
2023-01-29T04:59:12.191Z,57.44
2023-01-29T05:02:14.385Z,56.44
2023-01-29T05:05:18.371Z,57.57
2023-01-29T05:08:22.491Z,57.78
2023-01-29T05:11:25.196Z,56.66
2023-01-29T05:14:30.376Z,57.42
2023-01-29T05:17:32.578Z,56.40
2023-01-29T05:20:37.691Z,56.32
2023-01-29T05:23:39.845Z,56.24
2023-01-29T05:27:02.721Z,56.70
2023-01-29T05:30:05.662Z,56.26
2023-01-29T05:33:15.402Z,56.01
2023-01-29T05:36:17.569Z,56.91
2023-01-29T05:39:19.970Z,56.18
2023-01-29T05:42:22.306Z,56.58
2023-01-29T05:45:24.628Z,56.27
2023-01-29T05:48:28.936Z,57.17
2023-01-29T05:51:31.209Z,55.80
2023-01-29T05:54:33.287Z,55.36
2023-01-29T05:57:35.530Z,56.33
2023-01-29T06:00:40.769Z,56.66
2023-01-29T06:03:43.344Z,56.68
2023-01-29T06:06:45.454Z,55.96
2023-01-29T06:09:47.608Z,56.08
2023-01-29T06:12:49.787Z,55.83
2023-01-29T06:15:52.087Z,55.03
2023-01-29T06:18:54.347Z,54.91
2023-01-29T06:21:56.651Z,55.72
2023-01-29T06:24:58.877Z,54.42
2023-01-29T06:28:01.138Z,54.93
2023-01-29T06:31:23.790Z,54.56
2023-01-29T06:34:27.571Z,56.04
2023-01-29T06:37:29.787Z,56.20
2023-01-29T06:40:32.087Z,55.89
2023-01-29T06:43:34.279Z,56.06
2023-01-29T06:46:36.551Z,54.91
2023-01-29T06:49:38.719Z,56.01
2023-01-29T06:52:40.957Z,56.18
2023-01-29T06:55:43.247Z,55.93
2023-01-29T06:58:45.498Z,55.27
2023-01-29T07:01:47.898Z,54.68
2023-01-29T07:04:50.167Z,56.12
2023-01-29T07:07:52.345Z,54.64
2023-01-29T07:11:01.845Z,55.76
2023-01-29T07:14:04.283Z,55.77
2023-01-29T07:17:06.457Z,54.68
2023-01-29T07:20:09.202Z,55.40
2023-01-29T07:23:14.706Z,56.81
2023-01-29T07:26:16.927Z,55.90
2023-01-29T07:29:19.130Z,54.97
2023-01-29T07:32:21.306Z,55.96
2023-01-29T07:35:23.557Z,54.71
2023-01-29T07:38:25.873Z,55.36
2023-01-29T07:41:28.042Z,55.51
2023-01-29T07:44:30.205Z,55.94
2023-01-29T07:47:32.446Z,54.76
2023-01-29T07:50:35.132Z,55.97
2023-01-29T07:53:37.424Z,56.10
2023-01-29T07:56:39.617Z,55.44
2023-01-29T07:59:41.792Z,56.19
2023-01-29T08:02:43.955Z,54.97
2023-01-29T08:05:46.729Z,54.23
2023-01-29T08:08:48.899Z,53.75
2023-01-29T08:11:51.099Z,54.14
2023-01-29T08:14:53.216Z,54.61
2023-01-29T08:17:58.048Z,54.57
2023-01-29T08:21:17.838Z,53.71
2023-01-29T08:24:20.104Z,54.65
2023-01-29T08:27:22.329Z,54.20
2023-01-29T08:30:30.321Z,53.17
2023-01-29T08:33:39.176Z,53.87
2023-01-29T08:36:41.681Z,54.10
2023-01-29T08:39:43.845Z,53.92
2023-01-29T08:42:46.027Z,52.95
2023-01-29T08:45:48.242Z,53.82
2023-01-29T08:48:50.406Z,53.70
2023-01-29T08:51:53.777Z,53.95
2023-01-29T08:54:55.956Z,54.35
2023-01-29T08:57:58.172Z,53.08
2023-01-29T09:01:10.145Z,54.85
2023-01-29T09:04:12.304Z,52.31
2023-01-29T09:07:17.204Z,52.10
2023-01-29T09:10:19.472Z,54.73
2023-01-29T09:13:21.885Z,55.38
2023-01-29T09:16:24.041Z,55.05
2023-01-29T09:19:26.475Z,54.15
2023-01-29T09:22:28.636Z,53.77
2023-01-29T09:25:30.821Z,53.62
2023-01-29T09:28:33.042Z,52.54
2023-01-29T09:31:35.247Z,52.80
2023-01-29T09:34:37.441Z,52.31
2023-01-29T09:37:39.589Z,52.11
2023-01-29T09:40:46.667Z,52.16
2023-01-29T09:43:58.279Z,52.80
2023-01-29T09:47:04.175Z,51.16
2023-01-29T09:50:13.863Z,51.11
2023-01-29T09:53:34.789Z,51.96
2023-01-29T09:56:36.951Z,50.04
2023-01-29T09:59:39.146Z,51.51
2023-01-29T10:03:04.697Z,49.76
2023-01-29T10:06:32.375Z,51.35
2023-01-29T10:09:53.218Z,51.91
2023-01-29T10:13:08.012Z,53.25
2023-01-29T10:16:48.645Z,51.78
2023-01-29T10:20:27.768Z,50.50
2023-01-29T10:23:46.309Z,51.65
2023-01-29T10:26:49.333Z,49.38
2023-01-29T10:29:53.844Z,50.28
2023-01-29T10:32:59.116Z,52.19
2023-01-29T10:36:05.306Z,50.68
2023-01-29T10:39:22.400Z,50.92
2023-01-29T10:42:31.011Z,51.47
2023-01-29T10:45:54.410Z,50.41
2023-01-29T10:49:24.493Z,50.47
2023-01-29T10:52:57.015Z,50.70
2023-01-29T10:56:22.738Z,49.72
2023-01-29T10:59:56.669Z,49.44
2023-01-29T11:03:28.954Z,50.63
2023-01-29T11:06:33.775Z,50.35
2023-01-29T11:09:41.578Z,49.31
2023-01-29T11:12:44.079Z,49.08
2023-01-29T11:15:46.232Z,50.83
2023-01-29T11:18:59.626Z,49.43
2023-01-29T11:22:01.850Z,49.91
2023-01-29T11:25:20.362Z,49.74
2023-01-29T11:28:39.087Z,48.69
2023-01-29T11:31:41.334Z,49.82
2023-01-29T11:35:04.303Z,49.22
2023-01-29T11:38:19.804Z,50.25
2023-01-29T11:41:25.497Z,50.78
2023-01-29T11:44:38.702Z,48.77
2023-01-29T11:47:40.883Z,49.05
2023-01-29T11:50:43.517Z,48.51
2023-01-29T11:53:50.099Z,48.47
2023-01-29T11:56:52.286Z,47.84
2023-01-29T11:59:56.690Z,47.36
2023-01-29T12:03:12.772Z,48.03
2023-01-29T12:06:24.168Z,46.60
2023-01-29T12:09:28.293Z,48.49
2023-01-29T12:12:39.445Z,48.18
2023-01-29T12:15:42.600Z,47.16
2023-01-29T12:18:52.944Z,49.22
2023-01-29T12:21:59.557Z,47.41
2023-01-29T12:25:07.974Z,45.52
2023-01-29T12:28:42.399Z,46.71
2023-01-29T12:32:22.441Z,45.98
2023-01-29T12:35:41.382Z,47.38
2023-01-29T12:38:44.962Z,45.75
2023-01-29T12:41:54.010Z,47.12
2023-01-29T12:45:03.476Z,47.50
2023-01-29T12:48:11.329Z,46.13
2023-01-29T12:51:23.931Z,45.54
2023-01-29T12:54:51.578Z,44.96
2023-01-29T12:58:05.608Z,45.19
2023-01-29T13:01:23.436Z,45.10
2023-01-29T13:04:57.273Z,45.10
2023-01-29T13:08:10.013Z,45.21
2023-01-29T13:11:37.764Z,44.57
2023-01-29T13:15:03.205Z,44.64
2023-01-29T13:18:21.060Z,46.41
2023-01-29T13:21:35.453Z,45.74
2023-01-29T13:24:40.681Z,44.05
2023-01-29T13:27:47.822Z,43.21
2023-01-29T13:31:09.977Z,42.28
2023-01-29T13:34:16.888Z,42.91
2023-01-29T13:37:28.217Z,44.34
2023-01-29T13:40:31.921Z,44.22
2023-01-29T13:43:39.881Z,44.22
2023-01-29T13:46:42.231Z,43.74
2023-01-29T13:49:47.300Z,44.59
2023-01-29T13:52:56.388Z,45.75
2023-01-29T13:56:33.249Z,45.03
2023-01-29T13:59:53.828Z,44.11
2023-01-29T14:02:55.890Z,43.62
2023-01-29T14:06:01.909Z,41.46
2023-01-29T14:09:04.642Z,41.39
2023-01-29T14:12:22.148Z,40.31
2023-01-29T14:15:27.339Z,39.99
2023-01-29T14:18:30.709Z,40.57
2023-01-29T14:21:34.561Z,39.70
2023-01-29T14:24:36.851Z,41.06
2023-01-29T14:27:39.035Z,40.58
2023-01-29T14:30:47.171Z,38.49
2023-01-29T14:33:49.370Z,36.25
2023-01-29T14:36:58.100Z,34.92
2023-01-29T14:40:24.076Z,34.56
2023-01-29T14:43:26.204Z,33.98
2023-01-29T14:46:34.271Z,33.78
2023-01-29T14:49:56.354Z,33.59
2023-01-29T14:53:06.764Z,36.30
2023-01-29T14:56:11.912Z,35.29
2023-01-29T14:59:20.963Z,38.82
2023-01-29T15:02:32.768Z,41.97
2023-01-29T15:05:37.618Z,42.98
2023-01-29T15:08:44.307Z,41.24
2023-01-29T15:11:52.445Z,41.11
2023-01-29T15:15:16.715Z,41.38
2023-01-29T15:18:28.167Z,41.80
2023-01-29T15:21:30.316Z,41.96
2023-01-29T15:24:32.669Z,42.34
2023-01-29T15:27:35.155Z,44.23
2023-01-29T15:30:37.830Z,44.59
2023-01-29T15:33:43.143Z,46.06
2023-01-29T15:36:47.657Z,45.80
2023-01-29T15:39:52.209Z,46.11
2023-01-29T15:42:55.299Z,45.49
2023-01-29T15:46:03.373Z,46.98
2023-01-29T15:49:11.634Z,47.38
2023-01-29T15:52:27.094Z,47.95
2023-01-29T15:55:30.796Z,46.85
2023-01-29T15:58:33.109Z,47.78
2023-01-29T16:01:35.521Z,46.83
2023-01-29T16:04:37.782Z,46.73
2023-01-29T16:07:40.143Z,47.70
2023-01-29T16:10:42.697Z,47.91
2023-01-29T16:13:47.209Z,48.40
2023-01-29T16:16:49.476Z,48.33
2023-01-29T16:19:59.589Z,46.99
2023-01-29T16:23:02.044Z,48.16
2023-01-29T16:26:08.756Z,47.22
2023-01-29T16:29:22.797Z,50.17
2023-01-29T16:32:25.036Z,49.36
2023-01-29T16:35:27.294Z,49.27
2023-01-29T16:38:32.188Z,49.67
2023-01-29T16:41:38.576Z,49.19
2023-01-29T16:44:51.368Z,49.94
2023-01-29T16:48:32.326Z,49.31
2023-01-29T16:51:39.223Z,50.55
2023-01-29T16:54:44.571Z,50.86
2023-01-29T16:57:52.474Z,48.93
2023-01-29T17:01:01.301Z,47.37
2023-01-29T17:04:16.681Z,49.40
2023-01-29T17:07:22.017Z,48.84
2023-01-29T17:10:26.224Z,47.81
2023-01-29T17:13:42.925Z,49.78
2023-01-29T17:17:05.021Z,49.55
2023-01-29T17:20:15.577Z,48.29
2023-01-29T17:23:17.752Z,48.46
2023-01-29T17:26:20.536Z,50.80
2023-01-29T17:29:24.775Z,51.45
2023-01-29T17:32:43.908Z,50.61
2023-01-29T17:35:47.665Z,50.66
2023-01-29T17:38:49.884Z,50.84
2023-01-29T17:41:56.945Z,51.00
2023-01-29T17:45:00.563Z,50.59
2023-01-29T17:48:02.860Z,51.63
2023-01-29T17:51:05.399Z,52.19
2023-01-29T17:54:07.604Z,53.70
2023-01-29T17:57:12.327Z,52.58
2023-01-29T18:00:22.902Z,53.72
2023-01-29T18:03:26.607Z,52.29
2023-01-29T18:06:29.372Z,52.53
2023-01-29T18:09:31.601Z,53.49
2023-01-29T18:12:33.813Z,53.82
2023-01-29T18:15:36.000Z,53.60
2023-01-29T18:18:38.898Z,53.83
2023-01-29T18:21:41.138Z,53.76
2023-01-29T18:24:43.715Z,52.17
2023-01-29T18:27:46.203Z,52.79
2023-01-29T18:30:48.359Z,51.71
2023-01-29T18:33:50.533Z,52.11
2023-01-29T18:36:52.728Z,51.65
2023-01-29T18:39:55.498Z,51.93
2023-01-29T18:43:00.801Z,52.75
2023-01-29T18:46:03.446Z,52.23
2023-01-29T18:49:06.101Z,53.68
2023-01-29T18:52:08.355Z,51.17
2023-01-29T18:55:10.585Z,51.41
2023-01-29T18:58:29.008Z,51.91
2023-01-29T19:01:34.963Z,53.28
2023-01-29T19:04:37.203Z,53.61
2023-01-29T19:07:39.400Z,53.16
2023-01-29T19:10:41.753Z,53.10
2023-01-29T19:13:44.140Z,52.40
2023-01-29T19:16:46.593Z,52.17
2023-01-29T19:19:49.034Z,51.20
2023-01-29T19:22:51.615Z,50.82
2023-01-29T19:25:57.217Z,52.13
2023-01-29T19:29:00.810Z,52.60
2023-01-29T19:32:03.254Z,51.99
2023-01-29T19:35:06.084Z,51.81
2023-01-29T19:38:08.233Z,51.62
2023-01-29T19:41:10.411Z,51.54
2023-01-29T19:44:12.682Z,50.07
2023-01-29T19:47:17.177Z,50.88
2023-01-29T19:50:19.425Z,50.35
2023-01-29T19:53:22.852Z,52.16
2023-01-29T19:56:25.163Z,51.29
2023-01-29T19:59:27.379Z,51.15
2023-01-29T20:02:29.760Z,50.51
2023-01-29T20:05:35.640Z,50.76
2023-01-29T20:08:37.841Z,50.38
2023-01-29T20:11:40.067Z,49.83
2023-01-29T20:14:51.848Z,50.00
2023-01-29T20:17:54.036Z,50.83
2023-01-29T20:20:56.352Z,51.00
2023-01-29T20:23:58.618Z,50.66
2023-01-29T20:27:01.835Z,49.99
2023-01-29T20:30:04.417Z,50.51
2023-01-29T20:33:07.279Z,50.94
2023-01-29T20:36:10.872Z,52.09
2023-01-29T20:39:15.130Z,51.00
2023-01-29T20:42:17.345Z,50.86
2023-01-29T20:45:19.879Z,50.63
2023-01-29T20:48:22.240Z,50.10
2023-01-29T20:51:24.486Z,51.14
2023-01-29T20:54:26.933Z,49.68
2023-01-29T20:57:29.336Z,50.69
2023-01-29T21:00:31.613Z,50.82
2023-01-29T21:03:33.733Z,51.20
2023-01-29T21:06:35.891Z,50.24
2023-01-29T21:09:38.068Z,50.73
2023-01-29T21:12:40.277Z,50.34
2023-01-29T21:15:45.233Z,51.30
2023-01-29T21:18:47.541Z,51.29
2023-01-29T21:21:49.718Z,50.52
2023-01-29T21:24:52.120Z,50.35
2023-01-29T21:27:54.370Z,50.96
2023-01-29T21:31:11.504Z,50.69
2023-01-29T21:34:13.644Z,51.14
2023-01-29T21:37:15.793Z,50.60
2023-01-29T21:40:18.470Z,51.15
2023-01-29T21:43:20.786Z,51.46
2023-01-29T21:46:23.092Z,51.77
2023-01-29T21:49:25.364Z,51.17
2023-01-29T21:52:27.626Z,51.11
2023-01-29T21:55:29.995Z,50.37
2023-01-29T21:58:32.481Z,51.42
2023-01-29T22:01:37.899Z,51.22
2023-01-29T22:04:42.291Z,50.94
2023-01-29T22:07:44.496Z,51.09
2023-01-29T22:10:47.229Z,51.31
2023-01-29T22:13:49.496Z,50.76
2023-01-29T22:16:51.741Z,50.34
2023-01-29T22:19:53.853Z,50.52
2023-01-29T22:22:58.389Z,51.51
2023-01-29T22:26:05.131Z,51.43
2023-01-29T22:29:07.268Z,51.66
2023-01-29T22:32:10.362Z,50.77
2023-01-29T22:35:12.612Z,51.20
2023-01-29T22:38:14.732Z,51.26
2023-01-29T22:41:16.935Z,51.70
2023-01-29T22:44:19.036Z,51.81
2023-01-29T22:47:21.217Z,53.30
2023-01-29T22:50:23.407Z,53.17
2023-01-29T22:53:25.530Z,53.37
2023-01-29T22:56:29.531Z,54.26
2023-01-29T22:59:32.263Z,53.68
2023-01-29T23:02:34.467Z,51.51
2023-01-29T23:05:36.682Z,51.71
2023-01-29T23:08:38.935Z,53.08
2023-01-29T23:11:41.049Z,52.99
2023-01-29T23:14:43.356Z,54.37
2023-01-29T23:17:45.540Z,55.43
2023-01-29T23:20:47.902Z,55.74
2023-01-29T23:23:52.243Z,54.66
2023-01-29T23:27:13.083Z,56.19
2023-01-29T23:30:15.543Z,56.77
2023-01-29T23:33:18.043Z,56.34
2023-01-29T23:36:20.302Z,54.64
2023-01-29T23:39:22.422Z,55.47
2023-01-29T23:42:24.819Z,54.39
2023-01-29T23:45:26.929Z,54.61
2023-01-29T23:48:29.254Z,54.59
2023-01-29T23:51:31.573Z,54.63
2023-01-29T23:54:33.682Z,54.82
2023-01-29T23:57:35.857Z,53.14
